Time;durP1;ratioP1;P1;durP2;ratioP2;P2;SDS_P1;SDS_P2;PMS_P1;PMS_P2;Temp;Humidity;BMP_temperature;BMP_pressure;BME280_temperature;BME280_humidity;BME280_pressure;Samples;Min_cycle;Max_cycle;Signal;HPM_P1;HPM_P2
2021/07/10 00:00:37;;;;;;;20.58;16.23;;;16.20;99.90;;;;;;4986092;28;20243;-78
2021/07/10 00:03:04;;;;;;;19.63;15.50;;;16.20;99.90;;;;;;4986040;28;20253;-78
2021/07/10 00:05:33;;;;;;;19.08;14.35;;;16.20;99.90;;;;;;4985898;28;20208;-78
2021/07/10 00:08:00;;;;;;;19.98;14.93;;;16.20;99.90;;;;;;4986310;28;20215;-78
2021/07/10 00:10:28;;;;;;;16.80;13.05;;;16.20;99.90;;;;;;4985291;28;20711;-77
2021/07/10 00:12:55;;;;;;;23.02;17.02;;;16.20;99.90;;;;;;4988642;28;20216;-78
2021/07/10 00:15:23;;;;;;;21.70;16.53;;;16.20;99.90;;;;;;4989090;28;20215;-78
2021/07/10 00:17:51;;;;;;;20.60;15.52;;;16.20;99.90;;;;;;4988612;28;20226;-78
2021/07/10 00:20:19;;;;;;;18.83;15.23;;;16.10;99.90;;;;;;4986453;28;20347;-77
2021/07/10 00:22:48;;;;;;;19.98;14.77;;;16.10;99.90;;;;;;4986129;28;20213;-78
2021/07/10 00:25:17;;;;;;;20.92;15.45;;;16.10;99.90;;;;;;4986790;28;20583;-78
2021/07/10 00:27:45;;;;;;;16.52;12.63;;;16.10;99.90;;;;;;5004911;28;20214;-78
2021/07/10 00:30:14;;;;;;;15.63;13.37;;;16.00;99.90;;;;;;4990364;28;20632;-77
2021/07/10 00:32:41;;;;;;;13.25;11.30;;;16.00;99.90;;;;;;4984482;28;20364;-77
2021/07/10 00:35:09;;;;;;;16.93;13.00;;;16.00;99.90;;;;;;4983429;28;20620;-77
2021/07/10 00:37:37;;;;;;;17.45;12.88;;;16.00;99.90;;;;;;4985937;28;20203;-77
2021/07/10 00:40:07;;;;;;;15.17;12.20;;;15.90;99.90;;;;;;5002320;28;20773;-77
2021/07/10 00:42:34;;;;;;;17.48;13.43;;;15.90;99.90;;;;;;4989362;28;20310;-77
2021/07/10 00:45:01;;;;;;;17.23;12.18;;;15.90;99.90;;;;;;4982980;28;20229;-77
2021/07/10 00:47:28;;;;;;;20.40;14.97;;;15.90;99.90;;;;;;4983147;28;20240;-77
2021/07/10 00:49:55;;;;;;;20.23;15.70;;;15.90;99.90;;;;;;4983659;28;20228;-77
2021/07/10 00:52:21;;;;;;;18.17;14.10;;;15.90;99.90;;;;;;4993444;28;20910;-77
2021/07/10 00:54:48;;;;;;;28.17;19.47;;;15.90;99.90;;;;;;5002932;28;20936;-78
2021/07/10 00:57:18;;;;;;;20.58;14.68;;;15.90;99.90;;;;;;5019838;28;20206;-77
2021/07/10 00:59:46;;;;;;;21.07;15.67;;;15.90;99.90;;;;;;4989293;28;20518;-77
2021/07/10 01:02:13;;;;;;;21.97;17.17;;;15.90;99.90;;;;;;4987316;28;20204;-77
2021/07/10 01:04:40;;;;;;;22.57;16.60;;;16.00;99.90;;;;;;4993241;28;20620;-78
2021/07/10 01:07:07;;;;;;;19.03;15.20;;;16.00;99.90;;;;;;5004639;28;20203;-77
2021/07/10 01:09:33;;;;;;;23.92;16.50;;;16.00;99.90;;;;;;5003405;28;20607;-77
2021/07/10 01:12:00;;;;;;;28.70;19.43;;;16.00;99.90;;;;;;5000337;28;20211;-77
2021/07/10 01:14:29;;;;;;;29.50;20.87;;;16.10;99.90;;;;;;4983323;28;20278;-78
2021/07/10 01:16:56;;;;;;;27.20;20.23;;;16.10;99.90;;;;;;4982999;28;20208;-77
2021/07/10 01:19:26;;;;;;;23.60;17.57;;;16.10;99.90;;;;;;4982289;28;20222;-77
2021/07/10 01:21:55;;;;;;;21.77;15.30;;;16.10;99.90;;;;;;4983318;28;20748;-78
2021/07/10 01:24:21;;;;;;;20.87;15.97;;;16.10;99.90;;;;;;4983105;28;20218;-78
2021/07/10 01:26:48;;;;;;;20.60;14.87;;;16.10;99.90;;;;;;4982353;28;20215;-77
2021/07/10 01:29:15;;;;;;;20.67;15.83;;;16.10;99.90;;;;;;4982221;28;20224;-77
2021/07/10 01:31:43;;;;;;;20.20;14.23;;;16.10;99.90;;;;;;4983387;28;20208;-77
2021/07/10 01:34:10;;;;;;;16.60;13.20;;;16.10;99.90;;;;;;4981609;28;20212;-78
2021/07/10 01:36:37;;;;;;;24.00;17.47;;;16.10;99.90;;;;;;4982674;28;20196;-77
2021/07/10 01:39:08;;;;;;;25.95;18.38;;;16.10;99.90;;;;;;4982400;28;20622;-78
2021/07/10 01:41:43;;;;;;;25.37;17.27;;;16.10;99.90;;;;;;4982144;28;20204;-78
2021/07/10 01:44:10;;;;;;;26.13;17.83;;;16.00;99.90;;;;;;4982368;28;20235;-78
2021/07/10 01:46:37;;;;;;;24.67;17.27;;;16.00;99.90;;;;;;4983203;28;20244;-78
2021/07/10 01:49:04;;;;;;;21.63;17.00;;;15.90;99.90;;;;;;4981432;28;20208;-78
2021/07/10 01:51:31;;;;;;;32.23;21.40;;;15.90;99.90;;;;;;4981819;28;20220;-78
2021/07/10 01:53:57;;;;;;;21.13;16.63;;;15.90;99.90;;;;;;4982267;28;20223;-77
2021/07/10 01:56:26;;;;;;;23.40;15.80;;;15.80;99.90;;;;;;4983113;28;20204;-78
2021/07/10 01:58:54;;;;;;;21.13;15.50;;;15.80;99.90;;;;;;4986327;28;20200;-77
2021/07/10 02:01:21;;;;;;;30.53;21.50;;;15.80;99.90;;;;;;4987130;28;20286;-79
2021/07/10 02:03:47;;;;;;;23.03;16.80;;;15.80;99.90;;;;;;5005718;28;20729;-79
2021/07/10 02:06:14;;;;;;;21.10;15.23;;;15.70;99.90;;;;;;5005146;28;20423;-78
2021/07/10 02:08:41;;;;;;;19.77;14.53;;;15.70;99.90;;;;;;5004887;28;20624;-79
2021/07/10 02:11:08;;;;;;;25.67;18.43;;;15.70;99.90;;;;;;4999342;28;20211;-79
2021/07/10 02:13:36;;;;;;;28.93;18.90;;;15.70;99.90;;;;;;4985698;28;20666;-78
2021/07/10 02:16:04;;;;;;;27.07;18.73;;;15.70;99.90;;;;;;4985266;28;20200;-78
2021/07/10 02:18:31;;;;;;;31.37;20.90;;;15.70;99.90;;;;;;5007355;28;20196;-78
2021/07/10 02:20:57;;;;;;;38.77;24.93;;;15.70;99.90;;;;;;4992507;28;20241;-78
2021/07/10 02:23:24;;;;;;;34.10;22.57;;;15.70;99.90;;;;;;4989408;28;20204;-80
2021/07/10 02:25:51;;;;;;;37.23;23.03;;;15.70;99.90;;;;;;4986420;28;20212;-78
2021/07/10 02:28:18;;;;;;;28.40;19.60;;;15.70;99.90;;;;;;4985406;28;20207;-80
2021/07/10 02:30:46;;;;;;;27.87;19.93;;;15.70;99.90;;;;;;4985714;28;20267;-79
2021/07/10 02:33:13;;;;;;;29.47;20.70;;;15.70;99.90;;;;;;4985864;28;20207;-77
2021/07/10 02:35:39;;;;;;;27.40;18.63;;;15.70;99.90;;;;;;4985660;28;20215;-78
2021/07/10 02:38:06;;;;;;;24.97;18.53;;;15.70;99.90;;;;;;4984709;28;20208;-78
2021/07/10 02:40:34;;;;;;;28.57;19.70;;;15.60;99.90;;;;;;4985870;28;20533;-78
2021/07/10 02:43:01;;;;;;;31.43;21.27;;;15.60;99.90;;;;;;4985886;28;20243;-79
2021/07/10 02:45:28;;;;;;;26.73;19.53;;;15.60;99.90;;;;;;4984897;28;20488;-77
2021/07/10 02:47:57;;;;;;;30.30;19.30;;;15.50;99.90;;;;;;4985481;28;20652;-78
2021/07/10 02:50:26;;;;;;;25.17;17.40;;;15.50;99.90;;;;;;4985426;28;20200;-79
2021/07/10 02:52:54;;;;;;;28.47;19.07;;;15.50;99.90;;;;;;4984972;28;20200;-79
2021/07/10 02:55:21;;;;;;;25.17;17.27;;;15.50;99.90;;;;;;4985105;28;20308;-79
2021/07/10 02:57:48;;;;;;;31.43;19.90;;;15.40;99.90;;;;;;4984119;28;20216;-78
2021/07/10 03:00:18;;;;;;;29.30;20.00;;;15.40;99.90;;;;;;4984430;28;20285;-78
2021/07/10 03:02:45;;;;;;;26.63;18.40;;;15.40;99.90;;;;;;4984716;28;20247;-77
2021/07/10 03:05:14;;;;;;;25.40;16.73;;;15.30;99.90;;;;;;4984409;28;20211;-78
2021/07/10 03:07:42;;;;;;;20.97;14.40;;;15.30;99.90;;;;;;4984950;28;20219;-78
2021/07/10 03:10:12;;;;;;;22.07;14.90;;;15.30;99.90;;;;;;4985110;28;20214;-78
2021/07/10 03:12:39;;;;;;;23.37;15.33;;;15.30;99.90;;;;;;4984560;28;20212;-78
2021/07/10 03:15:08;;;;;;;24.50;15.77;;;15.20;99.90;;;;;;4985072;28;20241;-79
2021/07/10 03:17:35;;;;;;;20.47;14.53;;;15.20;99.90;;;;;;4985270;28;20215;-79
2021/07/10 03:20:02;;;;;;;22.73;16.07;;;15.20;99.90;;;;;;4984211;28;20235;-78
2021/07/10 03:22:30;;;;;;;25.33;17.07;;;15.20;99.90;;;;;;4985140;28;20204;-79
2021/07/10 03:24:57;;;;;;;28.03;17.27;;;15.20;99.90;;;;;;4996736;28;20207;-78
2021/07/10 03:27:23;;;;;;;25.23;16.60;;;15.20;99.90;;;;;;5003311;28;20196;-78
2021/07/10 03:29:50;;;;;;;34.17;22.73;;;15.20;99.90;;;;;;5004654;28;20230;-78
2021/07/10 03:32:17;;;;;;;29.43;19.10;;;15.20;99.90;;;;;;4990229;28;20977;-78
2021/07/10 03:34:44;;;;;;;35.13;23.17;;;15.20;99.90;;;;;;4984920;28;20203;-78
2021/07/10 03:37:10;;;;;;;31.77;21.37;;;15.20;99.90;;;;;;4986279;28;20208;-79
2021/07/10 03:39:39;;;;;;;24.40;17.67;;;15.30;99.90;;;;;;4991976;28;20203;-79
2021/07/10 03:42:06;;;;;;;27.93;19.10;;;15.30;99.90;;;;;;4994758;28;20212;-78
2021/07/10 03:44:33;;;;;;;28.93;19.20;;;15.30;99.90;;;;;;4984861;28;20228;-78
2021/07/10 03:47:00;;;;;;;27.13;17.77;;;15.30;99.90;;;;;;4983855;28;20259;-78
2021/07/10 03:49:27;;;;;;;34.63;21.40;;;15.40;99.90;;;;;;4989448;28;20737;-78
2021/07/10 03:51:54;;;;;;;36.90;23.40;;;15.40;99.90;;;;;;5004438;28;20207;-78
2021/07/10 03:54:21;;;;;;;40.50;22.57;;;15.50;99.90;;;;;;4998170;28;20200;-79
2021/07/10 03:56:49;;;;;;;51.87;32.67;;;15.50;99.90;;;;;;4984549;28;20297;-78
2021/07/10 03:59:16;;;;;;;49.20;32.60;;;15.50;99.90;;;;;;4983670;28;20216;-78
2021/07/10 04:01:45;;;;;;;43.93;29.23;;;15.60;99.90;;;;;;4983282;28;20227;-79
2021/07/10 04:04:12;;;;;;;36.37;24.57;;;15.60;99.90;;;;;;4983941;28;20208;-77
2021/07/10 04:06:39;;;;;;;39.23;26.17;;;15.60;99.90;;;;;;4984037;28;20192;-77
2021/07/10 04:09:06;;;;;;;49.60;31.77;;;15.70;99.90;;;;;;4984279;28;20215;-77
2021/07/10 04:11:33;;;;;;;44.63;28.50;;;15.70;99.90;;;;;;4984017;28;20196;-77
2021/07/10 04:14:01;;;;;;;41.97;27.73;;;15.70;99.90;;;;;;4983774;28;20211;-79
2021/07/10 04:16:28;;;;;;;42.50;27.10;;;15.70;99.90;;;;;;4983277;28;20211;-79
2021/07/10 04:18:55;;;;;;;37.07;24.33;;;15.80;99.90;;;;;;4983496;28;20199;-78
2021/07/10 04:21:21;;;;;;;28.93;19.90;;;15.90;99.90;;;;;;4983826;28;20236;-78
2021/07/10 04:23:48;;;;;;;33.70;23.07;;;15.90;99.90;;;;;;4999902;28;20215;-78
2021/07/10 04:26:15;;;;;;;35.13;23.33;;;15.90;99.90;;;;;;5001822;28;20203;-80
2021/07/10 04:28:42;;;;;;;42.27;27.57;;;16.00;99.90;;;;;;5003753;28;20209;-77
2021/07/10 04:31:10;;;;;;;38.10;25.87;;;16.00;99.90;;;;;;5002956;28;20199;-77
2021/07/10 04:33:38;;;;;;;38.17;23.57;;;16.00;99.90;;;;;;5003050;28;20215;-78
2021/07/10 04:36:05;;;;;;;32.23;22.03;;;16.00;99.90;;;;;;4984438;28;20215;-77
2021/07/10 04:38:32;;;;;;;29.47;20.97;;;16.00;99.90;;;;;;4984210;28;20223;-78
2021/07/10 04:40:59;;;;;;;31.27;21.67;;;16.10;99.90;;;;;;4983116;28;20224;-78
2021/07/10 04:43:26;;;;;;;33.83;22.90;;;16.10;99.90;;;;;;4983096;28;20211;-78
2021/07/10 04:45:52;;;;;;;44.67;27.40;;;16.10;99.90;;;;;;4983724;28;20576;-77
2021/07/10 04:48:21;;;;;;;44.13;28.67;;;16.20;99.90;;;;;;4982804;28;20218;-77
2021/07/10 04:50:47;;;;;;;42.97;26.30;;;16.20;99.90;;;;;;4983504;28;20207;-79
2021/07/10 04:53:14;;;;;;;36.35;24.63;;;16.20;99.90;;;;;;4983435;28;20215;-78
2021/07/10 04:55:42;;;;;;;43.53;28.35;;;16.30;99.90;;;;;;4985178;28;20215;-78
2021/07/10 04:58:09;;;;;;;32.40;21.70;;;16.30;99.90;;;;;;4997703;28;20335;-77
2021/07/10 05:00:36;;;;;;;43.22;28.73;;;16.30;99.90;;;;;;5003828;28;20324;-77
2021/07/10 05:03:03;;;;;;;43.57;28.57;;;16.40;99.90;;;;;;5003803;28;20207;-77
2021/07/10 05:05:31;;;;;;;42.80;25.63;;;16.40;99.90;;;;;;4984416;28;20219;-77
2021/07/10 05:07:59;;;;;;;40.47;26.13;;;16.40;99.90;;;;;;4984367;28;20207;-77
2021/07/10 05:10:26;;;;;;;37.50;24.90;;;16.40;99.90;;;;;;4984200;28;20216;-78
2021/07/10 05:12:53;;;;;;;30.03;21.63;;;16.40;99.90;;;;;;4982926;28;20859;-78
2021/07/10 05:15:20;;;;;;;38.15;26.08;;;16.50;99.90;;;;;;4983542;28;20419;-79
2021/07/10 05:17:46;;;;;;;38.90;24.92;;;16.50;99.90;;;;;;4983600;28;20204;-78
2021/07/10 05:20:14;;;;;;;40.75;27.58;;;16.50;99.90;;;;;;4997777;28;20207;-78
2021/07/10 05:22:43;;;;;;;40.90;27.52;;;16.60;99.90;;;;;;5002150;28;20211;-78
2021/07/10 05:25:11;;;;;;;44.55;28.92;;;16.60;99.90;;;;;;5000907;28;20227;-79
2021/07/10 05:27:39;;;;;;;29.97;21.33;;;16.50;99.90;;;;;;4983481;28;20208;-79
2021/07/10 05:30:08;;;;;;;26.38;19.30;;;16.60;99.90;;;;;;4983264;28;20243;-78
2021/07/10 05:32:35;;;;;;;48.20;31.50;;;16.60;99.90;;;;;;4986438;28;20234;-78
2021/07/10 05:35:02;;;;;;;42.58;27.67;;;16.70;99.90;;;;;;4986729;28;20207;-78
2021/07/10 05:37:29;;;;;;;40.75;26.73;;;16.70;99.90;;;;;;4986659;28;20196;-78
2021/07/10 05:39:57;;;;;;;41.70;27.73;;;16.80;99.90;;;;;;4986379;28;20215;-78
2021/07/10 05:42:23;;;;;;;36.63;24.33;;;16.80;99.90;;;;;;4986480;28;20243;-77
2021/07/10 05:44:50;;;;;;;36.20;24.48;;;16.90;99.90;;;;;;4986812;28;20203;-78
2021/07/10 05:47:17;;;;;;;37.65;25.83;;;16.90;99.90;;;;;;4985458;28;20248;-78
2021/07/10 05:49:43;;;;;;;30.27;22.83;;;17.00;99.90;;;;;;4986581;28;20204;-78
2021/07/10 05:52:10;;;;;;;32.35;24.05;;;17.10;99.90;;;;;;4986074;28;20200;-79
2021/07/10 05:54:37;;;;;;;35.72;27.33;;;17.10;99.90;;;;;;4986390;28;20203;-79
2021/07/10 05:57:06;;;;;;;32.57;23.37;;;17.10;99.90;;;;;;4985672;28;20594;-78
2021/07/10 05:59:33;;;;;;;32.28;22.90;;;17.20;99.90;;;;;;5006511;28;20203;-78
2021/07/10 06:02:06;;;;;;;32.58;22.67;;;17.20;99.90;;;;;;5004950;28;20231;-79
2021/07/10 06:04:32;;;;;;;28.75;21.83;;;17.20;99.90;;;;;;4988789;28;20291;-78
2021/07/10 06:06:59;;;;;;;24.42;19.25;;;17.20;99.90;;;;;;4985554;28;20232;-78
2021/07/10 06:09:26;;;;;;;24.15;18.73;;;17.30;99.90;;;;;;4986896;28;20204;-77
2021/07/10 06:11:53;;;;;;;28.73;21.73;;;17.30;99.90;;;;;;4988170;28;20196;-78
2021/07/10 06:14:21;;;;;;;27.85;20.77;;;17.40;99.90;;;;;;4986690;28;20246;-78
2021/07/10 06:16:48;;;;;;;30.00;21.90;;;17.50;99.90;;;;;;4986591;28;20200;-78
2021/07/10 06:19:15;;;;;;;27.02;19.58;;;17.70;99.90;;;;;;4986611;28;20211;-78
2021/07/10 06:21:41;;;;;;;30.17;21.98;;;17.90;99.90;;;;;;4985979;28;20231;-78
2021/07/10 06:24:08;;;;;;;31.75;23.65;;;18.00;99.90;;;;;;4985977;28;20208;-78
2021/07/10 06:26:35;;;;;;;25.85;19.05;;;18.10;99.90;;;;;;4985287;28;20204;-78
2021/07/10 06:29:02;;;;;;;19.58;16.65;;;18.30;99.90;;;;;;4985058;28;20231;-78
2021/07/10 06:31:30;;;;;;;17.48;14.90;;;18.40;99.90;;;;;;4985218;28;20207;-78
2021/07/10 06:33:59;;;;;;;18.80;15.68;;;18.50;99.90;;;;;;4984984;28;20560;-79
2021/07/10 06:36:27;;;;;;;16.38;14.35;;;18.70;99.90;;;;;;4984073;28;20318;-78
2021/07/10 06:38:53;;;;;;;16.38;12.23;;;18.70;99.90;;;;;;4985942;28;20207;-79
2021/07/10 06:41:21;;;;;;;18.38;14.95;;;18.70;99.90;;;;;;4983939;28;20220;-79
2021/07/10 06:43:48;;;;;;;16.73;14.43;;;18.70;99.90;;;;;;4984614;28;20502;-79
2021/07/10 06:46:15;;;;;;;21.25;17.25;;;18.70;99.90;;;;;;4984477;28;20582;-80
2021/07/10 06:48:43;;;;;;;20.45;14.77;;;18.70;99.90;;;;;;4985884;28;20246;-79
2021/07/10 06:51:09;;;;;;;21.88;17.23;;;18.80;99.90;;;;;;4984052;28;20289;-79
2021/07/10 06:53:37;;;;;;;22.13;17.75;;;18.70;99.90;;;;;;4984779;28;20525;-79
2021/07/10 06:56:04;;;;;;;23.27;18.42;;;18.70;99.90;;;;;;4984664;28;20200;-78
2021/07/10 06:58:31;;;;;;;29.08;21.30;;;18.70;99.90;;;;;;4984282;28;20212;-79
2021/07/10 07:00:58;;;;;;;20.02;16.40;;;18.70;99.90;;;;;;4985152;28;20227;-79
2021/07/10 07:03:24;;;;;;;21.27;17.67;;;18.70;99.90;;;;;;5004282;28;20893;-79
2021/07/10 07:05:53;;;;;;;28.40;21.80;;;18.70;99.90;;;;;;5004306;28;20214;-79
2021/07/10 07:08:20;;;;;;;27.17;20.27;;;18.70;99.90;;;;;;4989449;28;20220;-79
2021/07/10 07:10:46;;;;;;;25.05;18.42;;;18.70;99.90;;;;;;4984934;28;20292;-79
2021/07/10 07:13:13;;;;;;;24.30;20.00;;;18.70;99.90;;;;;;4984387;28;20207;-79
2021/07/10 07:15:40;;;;;;;25.92;21.27;;;18.70;99.90;;;;;;4989131;28;20218;-80
2021/07/10 07:18:07;;;;;;;23.42;17.98;;;18.70;99.90;;;;;;5002915;28;20199;-79
2021/07/10 07:20:34;;;;;;;22.83;18.80;;;18.80;99.90;;;;;;5003938;28;20203;-79
2021/07/10 07:23:02;;;;;;;20.65;16.55;;;18.90;99.90;;;;;;5003364;28;20235;-79
2021/07/10 07:25:30;;;;;;;24.67;19.20;;;19.00;99.90;;;;;;5004421;28;20218;-79
2021/07/10 07:27:57;;;;;;;30.80;22.48;;;19.20;99.90;;;;;;5005397;28;20210;-79
2021/07/10 07:30:24;;;;;;;23.33;19.00;;;19.30;99.90;;;;;;4999649;28;20247;-79
2021/07/10 07:32:50;;;;;;;26.25;19.83;;;19.40;99.90;;;;;;4984633;28;20208;-79
2021/07/10 07:35:18;;;;;;;24.45;17.80;;;19.40;99.90;;;;;;5001841;28;20211;-79
2021/07/10 07:37:45;;;;;;;30.98;22.52;;;19.50;99.90;;;;;;5003685;28;20207;-79
2021/07/10 07:40:15;;;;;;;23.90;19.73;;;19.60;99.90;;;;;;4994115;28;20553;-79
2021/07/10 07:42:43;;;;;;;24.55;19.65;;;19.70;99.90;;;;;;4984088;28;20640;-80
2021/07/10 07:45:11;;;;;;;26.00;21.50;;;19.80;99.90;;;;;;4983868;28;20211;-80
2021/07/10 07:47:39;;;;;;;23.10;18.13;;;20.00;99.90;;;;;;4983389;28;20243;-78
2021/07/10 07:50:08;;;;;;;21.23;17.63;;;20.10;99.90;;;;;;4984136;28;20582;-79
2021/07/10 07:52:35;;;;;;;25.70;17.73;;;20.20;99.90;;;;;;4983794;28;20215;-80
2021/07/10 07:55:02;;;;;;;31.23;21.00;;;20.10;99.90;;;;;;4982142;28;20207;-79
2021/07/10 07:57:30;;;;;;;26.40;20.73;;;20.10;99.90;;;;;;4983417;28;20212;-79
2021/07/10 07:59:57;;;;;;;23.95;19.13;;;20.10;99.90;;;;;;4983139;28;20208;-79
2021/07/10 08:02:23;;;;;;;21.00;16.23;;;20.20;99.90;;;;;;4984226;28;20248;-80
2021/07/10 08:04:51;;;;;;;20.33;16.88;;;20.20;99.90;;;;;;4983994;28;20515;-79
2021/07/10 08:07:18;;;;;;;23.52;18.27;;;20.30;99.90;;;;;;4982864;28;20219;-79
2021/07/10 08:09:45;;;;;;;26.40;19.27;;;20.30;99.90;;;;;;4983979;28;20236;-80
2021/07/10 08:12:12;;;;;;;21.80;17.58;;;20.30;99.90;;;;;;4983024;28;20203;-79
2021/07/10 08:14:40;;;;;;;23.83;18.73;;;20.40;99.90;;;;;;4983345;28;20208;-79
2021/07/10 08:17:07;;;;;;;39.28;23.45;;;20.50;99.90;;;;;;4982812;28;20224;-79
2021/07/10 08:19:34;;;;;;;70.80;30.83;;;20.70;99.90;;;;;;4983273;28;20223;-79
2021/07/10 08:22:00;;;;;;;28.95;21.95;;;20.90;99.90;;;;;;4982877;28;20671;-79
2021/07/10 08:24:27;;;;;;;25.92;21.10;;;21.10;99.90;;;;;;4983640;28;20200;-79
2021/07/10 08:26:54;;;;;;;21.50;17.52;;;21.20;99.90;;;;;;4983255;28;20210;-80
2021/07/10 08:29:21;;;;;;;20.80;17.52;;;21.20;99.90;;;;;;4982816;28;20864;-79
2021/07/10 08:31:49;;;;;;;24.92;19.50;;;21.60;99.90;;;;;;4982946;28;20529;-79
2021/07/10 08:34:16;;;;;;;23.10;17.27;;;22.00;99.90;;;;;;4983006;28;20523;-80
2021/07/10 08:36:42;;;;;;;24.60;20.67;;;22.30;99.90;;;;;;4982672;28;20208;-79
2021/07/10 08:39:09;;;;;;;23.70;20.05;;;22.50;99.90;;;;;;4984978;28;20210;-80
2021/07/10 08:41:37;;;;;;;20.52;17.58;;;22.60;99.90;;;;;;4988943;28;20219;-80
2021/07/10 08:44:04;;;;;;;21.77;18.08;;;22.60;99.90;;;;;;4983553;28;20562;-79
2021/07/10 08:46:31;;;;;;;27.30;21.60;;;22.80;99.90;;;;;;4987088;28;20246;-79
2021/07/10 08:48:59;;;;;;;23.17;18.02;;;22.90;99.90;;;;;;4985058;28;20207;-79
2021/07/10 08:51:26;;;;;;;21.27;17.95;;;22.80;99.90;;;;;;4995377;28;20222;-79
2021/07/10 08:53:53;;;;;;;21.00;17.33;;;23.20;99.90;;;;;;5003043;28;20558;-78
2021/07/10 08:56:20;;;;;;;18.10;15.20;;;23.50;99.90;;;;;;5001671;28;20902;-79
2021/07/10 08:58:47;;;;;;;18.88;15.98;;;23.70;99.90;;;;;;5001902;28;20931;-79
2021/07/10 09:01:14;;;;;;;21.13;17.52;;;23.70;99.90;;;;;;4982134;28;20306;-78
2021/07/10 09:03:41;;;;;;;24.73;19.50;;;23.60;99.90;;;;;;4982556;28;20243;-79
2021/07/10 09:06:09;;;;;;;27.52;20.40;;;23.50;99.90;;;;;;4982459;28;20207;-80
2021/07/10 09:08:36;;;;;;;18.85;15.68;;;23.20;99.90;;;;;;4982800;28;20691;-80
2021/07/10 09:11:06;;;;;;;20.52;17.63;;;23.10;99.90;;;;;;4981860;28;20216;-79
2021/07/10 09:13:36;;;;;;;20.88;16.90;;;23.10;99.90;;;;;;4982318;28;20911;-79
2021/07/10 09:16:08;;;;;;;22.67;19.65;;;23.30;99.90;;;;;;4982397;28;20203;-79
2021/07/10 09:18:44;;;;;;;19.85;16.52;;;23.40;99.90;;;;;;4981710;28;20196;-79
2021/07/10 09:21:15;;;;;;;20.90;17.65;;;23.60;99.90;;;;;;4981757;28;20266;-79
2021/07/10 09:23:45;;;;;;;17.33;14.15;;;23.60;99.90;;;;;;4982658;28;20211;-79
2021/07/10 09:26:18;;;;;;;16.77;14.63;;;23.50;99.90;;;;;;4981586;28;20797;-77
2021/07/10 09:28:55;;;;;;;15.35;13.20;;;23.40;99.90;;;;;;4998451;28;20214;-79
2021/07/10 09:31:27;;;;;;;14.30;11.35;;;23.30;99.90;;;;;;5001352;28;20207;-78
2021/07/10 09:33:59;;;;;;;13.05;10.82;;;23.20;99.90;;;;;;4982533;28;20208;-77
2021/07/10 09:36:27;;;;;;;13.10;11.20;;;23.10;99.90;;;;;;4982274;28;20207;-79
2021/07/10 09:38:54;;;;;;;14.45;11.70;;;23.10;99.90;;;;;;4982329;28;20224;-78
2021/07/10 09:41:27;;;;;;;19.15;12.50;;;23.00;99.90;;;;;;4983838;28;20208;-78
2021/07/10 09:44:03;;;;;;;13.40;11.15;;;22.80;99.90;;;;;;4982998;28;20196;-77
2021/07/10 09:46:30;;;;;;;12.60;10.75;;;22.90;99.90;;;;;;4982997;28;20243;-78
2021/07/10 09:48:57;;;;;;;16.67;12.82;;;23.00;99.90;;;;;;4983428;28;20206;-77
2021/07/10 09:51:25;;;;;;;12.75;10.77;;;23.10;99.90;;;;;;4983290;28;20204;-77
2021/07/10 09:54:05;;;;;;;13.48;11.88;;;23.20;99.90;;;;;;4986342;28;20208;-79
2021/07/10 09:56:34;;;;;;;14.38;12.02;;;23.40;99.90;;;;;;4990005;28;20207;-78
2021/07/10 09:59:18;;;;;;;13.70;12.30;;;23.60;99.90;;;;;;4989576;28;20207;-79
2021/07/10 10:01:45;;;;;;;13.48;11.10;;;23.80;99.90;;;;;;4987932;28;20203;-78
2021/07/10 10:04:24;;;;;;;15.57;13.98;;;23.90;99.90;;;;;;5000672;28;20214;-79
2021/07/10 10:06:51;;;;;;;13.73;11.30;;;24.00;99.90;;;;;;5003868;28;20214;-78
2021/07/10 10:09:22;;;;;;;17.00;13.43;;;24.30;99.90;;;;;;5002609;28;20207;-79
2021/07/10 10:11:52;;;;;;;12.88;11.55;;;24.50;99.90;;;;;;4999614;28;20219;-76
2021/07/10 10:14:20;;;;;;;14.50;11.77;;;24.70;99.90;;;;;;4981748;28;20212;-78
2021/07/10 10:16:50;;;;;;;12.02;10.75;;;24.70;99.90;;;;;;4984236;28;20617;-77
2021/07/10 10:19:18;;;;;;;13.20;11.43;;;25.00;99.90;;;;;;4986003;28;20922;-78
2021/07/10 10:21:46;;;;;;;12.48;10.07;;;25.10;99.90;;;;;;4985374;28;20215;-78
2021/07/10 10:24:13;;;;;;;8.57;7.75;;;25.30;99.90;;;;;;4985384;28;20211;-80
2021/07/10 10:26:42;;;;;;;7.50;6.80;;;25.60;99.90;;;;;;4986084;28;20208;-80
2021/07/10 10:29:11;;;;;;;11.07;9.43;;;25.70;99.90;;;;;;4984111;28;20223;-81
2021/07/10 10:31:39;;;;;;;12.00;8.93;;;25.60;99.90;;;;;;4985258;28;20207;-80
2021/07/10 10:34:07;;;;;;;9.23;8.07;;;25.50;99.90;;;;;;4985362;28;20207;-80
2021/07/10 10:36:35;;;;;;;9.27;8.30;;;25.70;99.90;;;;;;4984497;28;20630;-80
2021/07/10 10:39:02;;;;;;;8.43;7.55;;;25.90;99.90;;;;;;4985017;28;20282;-80
2021/07/10 10:41:30;;;;;;;7.25;6.55;;;26.30;99.90;;;;;;5004462;28;20215;-80
2021/07/10 10:43:59;;;;;;;7.78;6.53;;;26.30;99.90;;;;;;5004384;28;20353;-79
2021/07/10 10:46:26;;;;;;;8.35;6.50;;;26.10;99.90;;;;;;4988019;28;20239;-81
2021/07/10 10:48:53;;;;;;;8.07;7.28;;;26.40;99.90;;;;;;4985004;28;20226;-79
2021/07/10 10:51:33;;;;;;;9.15;6.65;;;26.50;99.90;;;;;;4984964;28;20211;-80
2021/07/10 10:54:25;;;;;;;6.30;5.65;;;26.50;99.90;;;;;;4985620;28;20200;-80
2021/07/10 10:56:52;;;;;;;8.00;5.57;;;26.50;99.90;;;;;;4984722;28;20211;-79
2021/07/10 10:59:37;;;;;;;5.28;4.55;;;26.80;99.90;;;;;;4984246;28;20212;-80
2021/07/10 11:02:32;;;;;;;4.68;3.83;;;27.10;99.90;;;;;;4985253;28;20574;-80
2021/07/10 11:05:00;;;;;;;3.40;2.95;;;27.40;99.90;;;;;;4982854;28;20216;-80
2021/07/10 11:07:29;;;;;;;2.85;2.53;;;27.60;99.90;;;;;;4983928;28;20611;-80
2021/07/10 11:10:16;;;;;;;3.05;2.70;;;27.60;99.90;;;;;;4983779;28;20318;-80
2021/07/10 11:12:57;;;;;;;3.30;2.92;;;27.40;99.90;;;;;;4987833;28;20219;-80
2021/07/10 11:15:43;;;;;;;3.55;3.08;;;27.20;99.90;;;;;;4998787;28;20200;-80
2021/07/10 11:18:28;;;;;;;4.43;3.22;;;26.90;99.90;;;;;;4993435;28;20203;-81
2021/07/10 11:20:56;;;;;;;6.43;4.47;;;26.90;99.90;;;;;;5000863;28;20226;-79
2021/07/10 11:23:30;;;;;;;3.60;3.20;;;26.90;99.90;;;;;;5008576;28;20288;-80
2021/07/10 11:26:06;;;;;;;7.50;6.22;;;27.00;99.90;;;;;;4995323;28;20203;-79
2021/07/10 11:28:41;;;;;;;8.52;7.72;;;27.00;99.90;;;;;;4983434;28;20294;-79
2021/07/10 11:31:17;;;;;;;8.27;7.47;;;27.00;99.90;;;;;;4983056;28;20208;-79
2021/07/10 11:34:15;;;;;;;8.75;6.72;;;27.00;99.90;;;;;;4984932;28;20217;-80
2021/07/10 11:36:55;;;;;;;7.80;7.00;;;27.20;99.90;;;;;;4984520;28;20611;-81
2021/07/10 11:39:40;;;;;;;7.82;7.03;;;27.20;99.90;;;;;;4983625;28;20210;-80
2021/07/10 11:42:44;;;;;;;8.75;7.10;;;27.10;99.90;;;;;;4984521;28;20196;-82
2021/07/10 11:45:28;;;;;;;10.32;7.72;;;26.80;99.90;;;;;;4970756;28;20196;-80
2021/07/10 11:48:13;;;;;;;10.90;7.53;;;26.80;99.90;;;;;;4982767;28;20235;-79
2021/07/10 11:50:40;;;;;;;7.05;6.25;;;26.60;99.90;;;;;;4980558;28;20214;-80
2021/07/10 11:53:08;;;;;;;10.07;7.93;;;26.50;99.90;;;;;;4983893;28;20211;-82
2021/07/10 11:55:37;;;;;;;8.35;7.07;;;26.40;99.90;;;;;;4983905;28;20208;-81
2021/07/10 11:58:06;;;;;;;8.60;7.47;;;26.60;99.90;;;;;;4984124;28;20211;-81
2021/07/10 12:00:34;;;;;;;9.88;6.63;;;26.70;99.90;;;;;;4983598;28;20207;-80
2021/07/10 12:03:02;;;;;;;7.68;6.30;;;27.00;99.90;;;;;;4984028;28;20228;-81
2021/07/10 12:05:30;;;;;;;7.10;5.63;;;27.00;99.90;;;;;;4984130;28;20207;-81
2021/07/10 12:07:59;;;;;;;9.05;6.10;;;27.40;99.90;;;;;;4981971;28;20203;-81
2021/07/10 12:10:28;;;;;;;8.73;6.45;;;27.50;99.90;;;;;;4982872;28;20207;-81
2021/07/10 12:12:56;;;;;;;9.80;6.97;;;27.60;99.90;;;;;;4983671;28;20212;-80
2021/07/10 12:15:24;;;;;;;6.78;5.90;;;27.40;99.90;;;;;;4983736;28;20339;-80
2021/07/10 12:17:54;;;;;;;8.30;6.10;;;27.20;99.90;;;;;;4982905;28;21008;-81
2021/07/10 12:20:23;;;;;;;6.93;6.07;;;27.00;99.90;;;;;;4981774;28;20204;-80
2021/07/10 12:22:53;;;;;;;7.05;6.35;;;27.00;99.90;;;;;;4983090;28;20278;-80
2021/07/10 12:25:22;;;;;;;7.20;6.50;;;27.10;99.90;;;;;;4982911;28;20856;-80
2021/07/10 12:27:53;;;;;;;6.57;5.97;;;26.90;99.90;;;;;;4982920;28;20211;-80
2021/07/10 12:30:42;;;;;;;6.10;5.50;;;26.70;99.90;;;;;;4983703;28;20531;-80
2021/07/10 12:33:38;;;;;;;8.07;5.93;;;26.50;99.90;;;;;;4985291;28;20199;-78
2021/07/10 12:36:16;;;;;;;6.43;5.43;;;26.50;99.90;;;;;;4985805;28;20219;-78
2021/07/10 12:39:09;;;;;;;5.75;5.25;;;26.70;99.90;;;;;;4988070;28;20211;-81